sensor_id;sensor_type;location;lat;lon;timestamp;pressure;altitude;pressure_sealevel;temperature
19644;BMP180;9970;-36.854;174.870;2023-08-08T00:00:25;101222.00;;;13.70
19644;BMP180;9970;-36.854;174.870;2023-08-08T00:02:58;101212.00;;;13.80
19644;BMP180;9970;-36.854;174.870;2023-08-08T00:05:31;101216.00;;;13.80
19644;BMP180;9970;-36.854;174.870;2023-08-08T00:08:04;101211.00;;;13.80
19644;BMP180;9970;-36.854;174.870;2023-08-08T00:10:38;101200.00;;;13.80
19644;BMP180;9970;-36.854;174.870;2023-08-08T00:13:11;101203.00;;;13.90
19644;BMP180;9970;-36.854;174.870;2023-08-08T00:15:58;101190.00;;;13.90
19644;BMP180;9970;-36.854;174.870;2023-08-08T00:18:31;101189.00;;;13.90
19644;BMP180;9970;-36.854;174.870;2023-08-08T00:21:04;101189.00;;;13.90
19644;BMP180;9970;-36.854;174.870;2023-08-08T00:23:37;101184.00;;;13.90
19644;BMP180;9970;-36.854;174.870;2023-08-08T00:26:10;101181.00;;;14.00
19644;BMP180;9970;-36.854;174.870;2023-08-08T00:28:43;101175.00;;;14.00
19644;BMP180;9970;-36.854;174.870;2023-08-08T00:31:16;101171.00;;;14.00
19644;BMP180;9970;-36.854;174.870;2023-08-08T00:33:50;101174.00;;;14.00
19644;BMP180;9970;-36.854;174.870;2023-08-08T00:36:23;101164.00;;;14.10
19644;BMP180;9970;-36.854;174.870;2023-08-08T00:38:57;101165.00;;;14.10
19644;BMP180;9970;-36.854;174.870;2023-08-08T00:41:30;101178.00;;;14.10
19644;BMP180;9970;-36.854;174.870;2023-08-08T00:44:03;101186.00;;;14.10
19644;BMP180;9970;-36.854;174.870;2023-08-08T00:46:36;101175.00;;;14.10
19644;BMP180;9970;-36.854;174.870;2023-08-08T00:49:09;101178.00;;;14.10
19644;BMP180;9970;-36.854;174.870;2023-08-08T00:51:42;101176.00;;;14.10
19644;BMP180;9970;-36.854;174.870;2023-08-08T00:54:15;101163.00;;;14.00
19644;BMP180;9970;-36.854;174.870;2023-08-08T00:56:48;101167.00;;;14.00
19644;BMP180;9970;-36.854;174.870;2023-08-08T00:59:22;101168.00;;;14.00
19644;BMP180;9970;-36.854;174.870;2023-08-08T01:01:56;101163.00;;;14.00
19644;BMP180;9970;-36.854;174.870;2023-08-08T01:04:30;101163.00;;;14.00
19644;BMP180;9970;-36.854;174.870;2023-08-08T01:10:15;101148.00;;;14.00
19644;BMP180;9970;-36.854;174.870;2023-08-08T01:12:53;101146.00;;;14.00
19644;BMP180;9970;-36.854;174.870;2023-08-08T01:15:27;101145.00;;;14.00
19644;BMP180;9970;-36.854;174.870;2023-08-08T01:18:08;101142.00;;;14.00
19644;BMP180;9970;-36.854;174.870;2023-08-08T01:20:36;101139.00;;;14.00
19644;BMP180;9970;-36.854;174.870;2023-08-08T01:24:01;101137.00;;;14.00
19644;BMP180;9970;-36.854;174.870;2023-08-08T01:25:49;101133.00;;;14.00
19644;BMP180;9970;-36.854;174.870;2023-08-08T01:28:22;101127.00;;;14.10
19644;BMP180;9970;-36.854;174.870;2023-08-08T01:30:55;101131.00;;;14.10
19644;BMP180;9970;-36.854;174.870;2023-08-08T01:33:28;101128.00;;;14.10
19644;BMP180;9970;-36.854;174.870;2023-08-08T01:36:04;101120.00;;;14.10
19644;BMP180;9970;-36.854;174.870;2023-08-08T01:38:38;101121.00;;;14.10
19644;BMP180;9970;-36.854;174.870;2023-08-08T01:41:12;101106.00;;;14.10
19644;BMP180;9970;-36.854;174.870;2023-08-08T01:43:45;101109.00;;;14.10
19644;BMP180;9970;-36.854;174.870;2023-08-08T01:46:19;101116.00;;;14.10
19644;BMP180;9970;-36.854;174.870;2023-08-08T01:48:52;101108.00;;;14.10
19644;BMP180;9970;-36.854;174.870;2023-08-08T01:51:25;101117.00;;;14.10
19644;BMP180;9970;-36.854;174.870;2023-08-08T01:53:58;101102.00;;;14.10
19644;BMP180;9970;-36.854;174.870;2023-08-08T01:56:31;101110.00;;;14.20
19644;BMP180;9970;-36.854;174.870;2023-08-08T01:59:04;101107.00;;;14.20
19644;BMP180;9970;-36.854;174.870;2023-08-08T02:01:37;101088.00;;;14.20
19644;BMP180;9970;-36.854;174.870;2023-08-08T02:04:10;101091.00;;;14.10
19644;BMP180;9970;-36.854;174.870;2023-08-08T02:06:43;101077.00;;;14.10
19644;BMP180;9970;-36.854;174.870;2023-08-08T02:09:16;101089.00;;;14.10
19644;BMP180;9970;-36.854;174.870;2023-08-08T02:11:50;101088.00;;;14.10
19644;BMP180;9970;-36.854;174.870;2023-08-08T02:14:23;101082.00;;;14.10
19644;BMP180;9970;-36.854;174.870;2023-08-08T02:16:56;101083.00;;;14.10
19644;BMP180;9970;-36.854;174.870;2023-08-08T02:19:28;101085.00;;;14.20
19644;BMP180;9970;-36.854;174.870;2023-08-08T02:22:02;101089.00;;;14.20
19644;BMP180;9970;-36.854;174.870;2023-08-08T02:24:35;101085.00;;;14.20
19644;BMP180;9970;-36.854;174.870;2023-08-08T02:27:08;101080.00;;;14.20
19644;BMP180;9970;-36.854;174.870;2023-08-08T02:29:41;101081.00;;;14.20
19644;BMP180;9970;-36.854;174.870;2023-08-08T02:32:14;101082.00;;;14.20
19644;BMP180;9970;-36.854;174.870;2023-08-08T02:34:47;101076.00;;;14.20
19644;BMP180;9970;-36.854;174.870;2023-08-08T02:37:20;101077.00;;;14.20
19644;BMP180;9970;-36.854;174.870;2023-08-08T02:39:54;101082.00;;;14.20
19644;BMP180;9970;-36.854;174.870;2023-08-08T02:42:26;101082.00;;;14.10
19644;BMP180;9970;-36.854;174.870;2023-08-08T02:44:59;101075.00;;;14.10
19644;BMP180;9970;-36.854;174.870;2023-08-08T02:47:32;101074.00;;;14.10
19644;BMP180;9970;-36.854;174.870;2023-08-08T02:50:06;101068.00;;;14.00
19644;BMP180;9970;-36.854;174.870;2023-08-08T02:52:39;101065.00;;;14.00
19644;BMP180;9970;-36.854;174.870;2023-08-08T02:55:12;101074.00;;;14.00
19644;BMP180;9970;-36.854;174.870;2023-08-08T02:57:45;101079.00;;;14.00
19644;BMP180;9970;-36.854;174.870;2023-08-08T03:00:18;101072.00;;;14.00
19644;BMP180;9970;-36.854;174.870;2023-08-08T03:02:51;101081.00;;;14.00
19644;BMP180;9970;-36.854;174.870;2023-08-08T03:05:24;101067.00;;;13.90
19644;BMP180;9970;-36.854;174.870;2023-08-08T03:07:57;101079.00;;;14.00
19644;BMP180;9970;-36.854;174.870;2023-08-08T03:10:30;101076.00;;;13.90
19644;BMP180;9970;-36.854;174.870;2023-08-08T03:13:04;101080.00;;;13.90
19644;BMP180;9970;-36.854;174.870;2023-08-08T03:15:37;101072.00;;;13.90
19644;BMP180;9970;-36.854;174.870;2023-08-08T03:18:10;101069.00;;;13.90
19644;BMP180;9970;-36.854;174.870;2023-08-08T03:20:43;101071.00;;;13.90
19644;BMP180;9970;-36.854;174.870;2023-08-08T03:23:16;101065.00;;;13.90
19644;BMP180;9970;-36.854;174.870;2023-08-08T03:25:49;101074.00;;;13.90
19644;BMP180;9970;-36.854;174.870;2023-08-08T03:28:22;101074.00;;;13.90
19644;BMP180;9970;-36.854;174.870;2023-08-08T03:30:55;101076.00;;;13.90
19644;BMP180;9970;-36.854;174.870;2023-08-08T03:33:28;101087.00;;;13.90
19644;BMP180;9970;-36.854;174.870;2023-08-08T03:36:01;101078.00;;;13.80
19644;BMP180;9970;-36.854;174.870;2023-08-08T03:38:34;101070.00;;;13.80
19644;BMP180;9970;-36.854;174.870;2023-08-08T03:41:08;101071.00;;;13.80
19644;BMP180;9970;-36.854;174.870;2023-08-08T03:43:41;101079.00;;;13.80
19644;BMP180;9970;-36.854;174.870;2023-08-08T03:46:14;101083.00;;;13.80
19644;BMP180;9970;-36.854;174.870;2023-08-08T03:48:47;101080.00;;;13.80
19644;BMP180;9970;-36.854;174.870;2023-08-08T03:51:22;101092.00;;;13.80
19644;BMP180;9970;-36.854;174.870;2023-08-08T03:53:55;101090.00;;;13.80
19644;BMP180;9970;-36.854;174.870;2023-08-08T03:56:32;101086.00;;;13.80
19644;BMP180;9970;-36.854;174.870;2023-08-08T03:59:05;101083.00;;;13.80
19644;BMP180;9970;-36.854;174.870;2023-08-08T04:01:38;101079.00;;;13.80
19644;BMP180;9970;-36.854;174.870;2023-08-08T04:04:11;101084.00;;;13.80
19644;BMP180;9970;-36.854;174.870;2023-08-08T04:06:44;101088.00;;;13.80
19644;BMP180;9970;-36.854;174.870;2023-08-08T04:09:17;101083.00;;;13.80
19644;BMP180;9970;-36.854;174.870;2023-08-08T04:11:50;101084.00;;;13.80
19644;BMP180;9970;-36.854;174.870;2023-08-08T04:14:23;101082.00;;;13.70
19644;BMP180;9970;-36.854;174.870;2023-08-08T04:16:56;101076.00;;;13.70
19644;BMP180;9970;-36.854;174.870;2023-08-08T04:19:29;101096.00;;;13.70
19644;BMP180;9970;-36.854;174.870;2023-08-08T04:22:02;101087.00;;;13.70
19644;BMP180;9970;-36.854;174.870;2023-08-08T04:24:35;101087.00;;;13.60
19644;BMP180;9970;-36.854;174.870;2023-08-08T04:27:08;101082.00;;;13.60
19644;BMP180;9970;-36.854;174.870;2023-08-08T04:29:41;101088.00;;;13.60
19644;BMP180;9970;-36.854;174.870;2023-08-08T04:32:14;101090.00;;;13.50
19644;BMP180;9970;-36.854;174.870;2023-08-08T04:34:47;101087.00;;;13.50
19644;BMP180;9970;-36.854;174.870;2023-08-08T04:37:20;101092.00;;;13.50
19644;BMP180;9970;-36.854;174.870;2023-08-08T04:39:53;101083.00;;;13.50
19644;BMP180;9970;-36.854;174.870;2023-08-08T04:42:26;101089.00;;;13.50
19644;BMP180;9970;-36.854;174.870;2023-08-08T04:45:00;101089.00;;;13.50
19644;BMP180;9970;-36.854;174.870;2023-08-08T04:47:33;101090.00;;;13.50
19644;BMP180;9970;-36.854;174.870;2023-08-08T04:50:07;101091.00;;;13.50
19644;BMP180;9970;-36.854;174.870;2023-08-08T04:52:40;101091.00;;;13.50
19644;BMP180;9970;-36.854;174.870;2023-08-08T04:55:13;101107.00;;;13.50
19644;BMP180;9970;-36.854;174.870;2023-08-08T04:57:45;101107.00;;;13.50
19644;BMP180;9970;-36.854;174.870;2023-08-08T05:00:18;101110.00;;;13.40
19644;BMP180;9970;-36.854;174.870;2023-08-08T05:02:51;101102.00;;;13.40
19644;BMP180;9970;-36.854;174.870;2023-08-08T05:05:24;101117.00;;;13.40
19644;BMP180;9970;-36.854;174.870;2023-08-08T05:07:58;101112.00;;;13.40
19644;BMP180;9970;-36.854;174.870;2023-08-08T05:10:31;101114.00;;;13.40
19644;BMP180;9970;-36.854;174.870;2023-08-08T05:13:04;101117.00;;;13.30
19644;BMP180;9970;-36.854;174.870;2023-08-08T05:15:37;101112.00;;;13.30
19644;BMP180;9970;-36.854;174.870;2023-08-08T05:18:10;101133.00;;;13.30
19644;BMP180;9970;-36.854;174.870;2023-08-08T05:20:42;101133.00;;;13.30
19644;BMP180;9970;-36.854;174.870;2023-08-08T05:23:16;101128.00;;;13.30
19644;BMP180;9970;-36.854;174.870;2023-08-08T05:25:49;101138.00;;;13.30
19644;BMP180;9970;-36.854;174.870;2023-08-08T05:28:22;101144.00;;;13.30
19644;BMP180;9970;-36.854;174.870;2023-08-08T05:30:55;101149.00;;;13.30
19644;BMP180;9970;-36.854;174.870;2023-08-08T05:33:28;101154.00;;;13.20
19644;BMP180;9970;-36.854;174.870;2023-08-08T05:36:02;101160.00;;;13.20
19644;BMP180;9970;-36.854;174.870;2023-08-08T05:38:35;101166.00;;;13.20
19644;BMP180;9970;-36.854;174.870;2023-08-08T05:41:08;101153.00;;;13.20
19644;BMP180;9970;-36.854;174.870;2023-08-08T05:43:42;101154.00;;;13.20
19644;BMP180;9970;-36.854;174.870;2023-08-08T05:46:15;101176.00;;;13.10
19644;BMP180;9970;-36.854;174.870;2023-08-08T05:48:48;101180.00;;;13.10
19644;BMP180;9970;-36.854;174.870;2023-08-08T05:51:21;101185.00;;;13.10
19644;BMP180;9970;-36.854;174.870;2023-08-08T05:53:54;101178.00;;;13.00
19644;BMP180;9970;-36.854;174.870;2023-08-08T05:56:35;101179.00;;;13.00
19644;BMP180;9970;-36.854;174.870;2023-08-08T05:59:08;101174.00;;;13.00
19644;BMP180;9970;-36.854;174.870;2023-08-08T06:01:42;101172.00;;;13.00
19644;BMP180;9970;-36.854;174.870;2023-08-08T06:04:15;101179.00;;;12.90
19644;BMP180;9970;-36.854;174.870;2023-08-08T06:06:48;101178.00;;;12.90
19644;BMP180;9970;-36.854;174.870;2023-08-08T06:09:22;101178.00;;;12.90
19644;BMP180;9970;-36.854;174.870;2023-08-08T06:11:55;101188.00;;;12.90
19644;BMP180;9970;-36.854;174.870;2023-08-08T06:14:28;101186.00;;;12.80
19644;BMP180;9970;-36.854;174.870;2023-08-08T06:17:01;101184.00;;;12.80
19644;BMP180;9970;-36.854;174.870;2023-08-08T06:19:34;101182.00;;;12.80
19644;BMP180;9970;-36.854;174.870;2023-08-08T06:22:07;101189.00;;;12.70
19644;BMP180;9970;-36.854;174.870;2023-08-08T06:24:40;101198.00;;;12.70
19644;BMP180;9970;-36.854;174.870;2023-08-08T06:27:13;101204.00;;;12.70
19644;BMP180;9970;-36.854;174.870;2023-08-08T06:29:47;101208.00;;;12.70
19644;BMP180;9970;-36.854;174.870;2023-08-08T06:32:19;101215.00;;;12.70
19644;BMP180;9970;-36.854;174.870;2023-08-08T06:34:52;101218.00;;;12.60
19644;BMP180;9970;-36.854;174.870;2023-08-08T06:37:26;101214.00;;;12.60
19644;BMP180;9970;-36.854;174.870;2023-08-08T06:39:59;101215.00;;;12.60
19644;BMP180;9970;-36.854;174.870;2023-08-08T06:42:32;101218.00;;;12.60
19644;BMP180;9970;-36.854;174.870;2023-08-08T06:45:06;101221.00;;;12.50
19644;BMP180;9970;-36.854;174.870;2023-08-08T06:47:40;101215.00;;;12.50
19644;BMP180;9970;-36.854;174.870;2023-08-08T06:50:14;101209.00;;;12.50
19644;BMP180;9970;-36.854;174.870;2023-08-08T06:52:49;101205.00;;;12.50
19644;BMP180;9970;-36.854;174.870;2023-08-08T06:55:23;101203.00;;;12.50
19644;BMP180;9970;-36.854;174.870;2023-08-08T06:57:56;101198.00;;;12.50
19644;BMP180;9970;-36.854;174.870;2023-08-08T07:00:29;101202.00;;;12.50
19644;BMP180;9970;-36.854;174.870;2023-08-08T07:03:02;101216.00;;;12.50
19644;BMP180;9970;-36.854;174.870;2023-08-08T07:05:36;101207.00;;;12.40
19644;BMP180;9970;-36.854;174.870;2023-08-08T07:08:10;101214.00;;;12.50
19644;BMP180;9970;-36.854;174.870;2023-08-08T07:10:43;101224.00;;;12.50
19644;BMP180;9970;-36.854;174.870;2023-08-08T07:13:16;101234.00;;;12.40
19644;BMP180;9970;-36.854;174.870;2023-08-08T07:15:50;101237.00;;;12.40
19644;BMP180;9970;-36.854;174.870;2023-08-08T07:18:23;101229.00;;;12.40
19644;BMP180;9970;-36.854;174.870;2023-08-08T07:20:56;101238.00;;;12.40
19644;BMP180;9970;-36.854;174.870;2023-08-08T07:23:30;101240.00;;;12.40
19644;BMP180;9970;-36.854;174.870;2023-08-08T07:26:03;101248.00;;;12.30
19644;BMP180;9970;-36.854;174.870;2023-08-08T07:28:36;101242.00;;;12.30
19644;BMP180;9970;-36.854;174.870;2023-08-08T07:31:08;101235.00;;;12.30
19644;BMP180;9970;-36.854;174.870;2023-08-08T07:33:41;101233.00;;;12.30
19644;BMP180;9970;-36.854;174.870;2023-08-08T07:36:14;101231.00;;;12.30
19644;BMP180;9970;-36.854;174.870;2023-08-08T07:38:47;101236.00;;;12.30
19644;BMP180;9970;-36.854;174.870;2023-08-08T07:41:21;101232.00;;;12.30
19644;BMP180;9970;-36.854;174.870;2023-08-08T07:43:55;101234.00;;;12.30
19644;BMP180;9970;-36.854;174.870;2023-08-08T07:46:28;101228.00;;;12.30
19644;BMP180;9970;-36.854;174.870;2023-08-08T07:49:02;101232.00;;;12.30
19644;BMP180;9970;-36.854;174.870;2023-08-08T07:51:35;101227.00;;;12.20
19644;BMP180;9970;-36.854;174.870;2023-08-08T07:54:09;101232.00;;;12.20
19644;BMP180;9970;-36.854;174.870;2023-08-08T07:56:42;101231.00;;;12.20
19644;BMP180;9970;-36.854;174.870;2023-08-08T07:59:15;101234.00;;;12.20
19644;BMP180;9970;-36.854;174.870;2023-08-08T08:01:48;101226.00;;;12.20
19644;BMP180;9970;-36.854;174.870;2023-08-08T08:04:21;101241.00;;;12.20
19644;BMP180;9970;-36.854;174.870;2023-08-08T08:06:54;101238.00;;;12.10
19644;BMP180;9970;-36.854;174.870;2023-08-08T08:09:27;101232.00;;;12.10
19644;BMP180;9970;-36.854;174.870;2023-08-08T08:12:00;101243.00;;;12.10
19644;BMP180;9970;-36.854;174.870;2023-08-08T08:14:33;101242.00;;;12.10
19644;BMP180;9970;-36.854;174.870;2023-08-08T08:17:05;101256.00;;;12.00
19644;BMP180;9970;-36.854;174.870;2023-08-08T08:19:38;101244.00;;;12.00
19644;BMP180;9970;-36.854;174.870;2023-08-08T08:22:12;101243.00;;;12.00
19644;BMP180;9970;-36.854;174.870;2023-08-08T08:24:45;101244.00;;;12.00
19644;BMP180;9970;-36.854;174.870;2023-08-08T08:27:18;101257.00;;;12.00
19644;BMP180;9970;-36.854;174.870;2023-08-08T08:29:51;101255.00;;;12.00
19644;BMP180;9970;-36.854;174.870;2023-08-08T08:32:24;101260.00;;;11.90
19644;BMP180;9970;-36.854;174.870;2023-08-08T08:34:57;101250.00;;;11.90
19644;BMP180;9970;-36.854;174.870;2023-08-08T08:37:30;101269.00;;;11.90
19644;BMP180;9970;-36.854;174.870;2023-08-08T08:40:08;101273.00;;;11.90
19644;BMP180;9970;-36.854;174.870;2023-08-08T08:42:41;101261.00;;;11.90
19644;BMP180;9970;-36.854;174.870;2023-08-08T08:45:15;101258.00;;;11.90
19644;BMP180;9970;-36.854;174.870;2023-08-08T08:47:50;101256.00;;;12.00
19644;BMP180;9970;-36.854;174.870;2023-08-08T08:50:26;101249.00;;;11.90
19644;BMP180;9970;-36.854;174.870;2023-08-08T08:53:00;101256.00;;;11.90
19644;BMP180;9970;-36.854;174.870;2023-08-08T08:55:33;101249.00;;;11.90
19644;BMP180;9970;-36.854;174.870;2023-08-08T08:58:06;101255.00;;;11.90
19644;BMP180;9970;-36.854;174.870;2023-08-08T09:00:41;101254.00;;;11.90
19644;BMP180;9970;-36.854;174.870;2023-08-08T09:03:14;101251.00;;;11.90
19644;BMP180;9970;-36.854;174.870;2023-08-08T09:05:48;101260.00;;;11.90
19644;BMP180;9970;-36.854;174.870;2023-08-08T09:08:21;101259.00;;;11.80
19644;BMP180;9970;-36.854;174.870;2023-08-08T09:10:54;101268.00;;;11.80
19644;BMP180;9970;-36.854;174.870;2023-08-08T09:13:32;101263.00;;;11.80
19644;BMP180;9970;-36.854;174.870;2023-08-08T09:16:01;101248.00;;;11.80
19644;BMP180;9970;-36.854;174.870;2023-08-08T09:18:34;101242.00;;;11.80
19644;BMP180;9970;-36.854;174.870;2023-08-08T09:21:11;101237.00;;;11.80
19644;BMP180;9970;-36.854;174.870;2023-08-08T09:23:44;101226.00;;;11.70
19644;BMP180;9970;-36.854;174.870;2023-08-08T09:26:17;101235.00;;;11.70
19644;BMP180;9970;-36.854;174.870;2023-08-08T09:28:51;101232.00;;;11.70
19644;BMP180;9970;-36.854;174.870;2023-08-08T09:31:25;101231.00;;;11.70
19644;BMP180;9970;-36.854;174.870;2023-08-08T09:33:59;101228.00;;;11.70
19644;BMP180;9970;-36.854;174.870;2023-08-08T09:36:33;101226.00;;;11.70
19644;BMP180;9970;-36.854;174.870;2023-08-08T09:39:07;101229.00;;;11.70
19644;BMP180;9970;-36.854;174.870;2023-08-08T09:41:40;101233.00;;;11.70
19644;BMP180;9970;-36.854;174.870;2023-08-08T09:44:13;101239.00;;;11.60
19644;BMP180;9970;-36.854;174.870;2023-08-08T09:46:46;101236.00;;;11.60
19644;BMP180;9970;-36.854;174.870;2023-08-08T09:49:20;101227.00;;;11.60
19644;BMP180;9970;-36.854;174.870;2023-08-08T09:51:53;101229.00;;;11.60
19644;BMP180;9970;-36.854;174.870;2023-08-08T09:54:27;101233.00;;;11.60
19644;BMP180;9970;-36.854;174.870;2023-08-08T09:57:01;101232.00;;;11.60
19644;BMP180;9970;-36.854;174.870;2023-08-08T09:59:35;101233.00;;;11.60
19644;BMP180;9970;-36.854;174.870;2023-08-08T10:02:09;101237.00;;;11.50
19644;BMP180;9970;-36.854;174.870;2023-08-08T10:04:44;101233.00;;;11.50
19644;BMP180;9970;-36.854;174.870;2023-08-08T10:07:17;101229.00;;;11.50
19644;BMP180;9970;-36.854;174.870;2023-08-08T10:09:50;101224.00;;;11.50
19644;BMP180;9970;-36.854;174.870;2023-08-08T10:12:25;101231.00;;;11.50
19644;BMP180;9970;-36.854;174.870;2023-08-08T10:14:58;101223.00;;;11.50
19644;BMP180;9970;-36.854;174.870;2023-08-08T10:17:34;101223.00;;;11.50
19644;BMP180;9970;-36.854;174.870;2023-08-08T10:20:08;101213.00;;;11.50
19644;BMP180;9970;-36.854;174.870;2023-08-08T10:22:46;101217.00;;;11.50
19644;BMP180;9970;-36.854;174.870;2023-08-08T10:25:30;101220.00;;;11.40
19644;BMP180;9970;-36.854;174.870;2023-08-08T10:28:11;101214.00;;;11.40
19644;BMP180;9970;-36.854;174.870;2023-08-08T10:30:55;101221.00;;;11.40
19644;BMP180;9970;-36.854;174.870;2023-08-08T10:33:39;101215.00;;;11.30
19644;BMP180;9970;-36.854;174.870;2023-08-08T10:36:06;101214.00;;;11.30
19644;BMP180;9970;-36.854;174.870;2023-08-08T10:38:44;101216.00;;;11.30
19644;BMP180;9970;-36.854;174.870;2023-08-08T10:41:19;101221.00;;;11.30
19644;BMP180;9970;-36.854;174.870;2023-08-08T10:43:58;101214.00;;;11.30
19644;BMP180;9970;-36.854;174.870;2023-08-08T10:46:28;101217.00;;;11.20
19644;BMP180;9970;-36.854;174.870;2023-08-08T10:49:04;101214.00;;;11.20
19644;BMP180;9970;-36.854;174.870;2023-08-08T10:51:43;101216.00;;;11.20
19644;BMP180;9970;-36.854;174.870;2023-08-08T10:54:22;101216.00;;;11.20
19644;BMP180;9970;-36.854;174.870;2023-08-08T10:56:56;101211.00;;;11.20
19644;BMP180;9970;-36.854;174.870;2023-08-08T10:59:37;101217.00;;;11.20
19644;BMP180;9970;-36.854;174.870;2023-08-08T11:02:10;101224.00;;;11.10
19644;BMP180;9970;-36.854;174.870;2023-08-08T11:04:45;101230.00;;;11.10
19644;BMP180;9970;-36.854;174.870;2023-08-08T11:07:18;101227.00;;;11.10
19644;BMP180;9970;-36.854;174.870;2023-08-08T11:09:52;101222.00;;;11.10
19644;BMP180;9970;-36.854;174.870;2023-08-08T11:12:25;101239.00;;;11.10
19644;BMP180;9970;-36.854;174.870;2023-08-08T11:14:58;101227.00;;;11.10
19644;BMP180;9970;-36.854;174.870;2023-08-08T11:17:31;101240.00;;;11.10
19644;BMP180;9970;-36.854;174.870;2023-08-08T11:20:05;101229.00;;;11.10
19644;BMP180;9970;-36.854;174.870;2023-08-08T11:22:38;101234.00;;;11.10
19644;BMP180;9970;-36.854;174.870;2023-08-08T11:25:14;101226.00;;;11.10
19644;BMP180;9970;-36.854;174.870;2023-08-08T11:27:52;101225.00;;;11.10
19644;BMP180;9970;-36.854;174.870;2023-08-08T11:30:31;101229.00;;;11.10
19644;BMP180;9970;-36.854;174.870;2023-08-08T11:33:01;101231.00;;;11.10
19644;BMP180;9970;-36.854;174.870;2023-08-08T11:35:35;101223.00;;;11.10
19644;BMP180;9970;-36.854;174.870;2023-08-08T11:38:09;101231.00;;;11.10
19644;BMP180;9970;-36.854;174.870;2023-08-08T11:40:42;101232.00;;;11.00
19644;BMP180;9970;-36.854;174.870;2023-08-08T11:43:16;101228.00;;;11.10
19644;BMP180;9970;-36.854;174.870;2023-08-08T11:45:49;101228.00;;;11.10
19644;BMP180;9970;-36.854;174.870;2023-08-08T11:48:22;101233.00;;;11.10
19644;BMP180;9970;-36.854;174.870;2023-08-08T11:50:56;101236.00;;;11.10
19644;BMP180;9970;-36.854;174.870;2023-08-08T11:53:29;101232.00;;;11.10
19644;BMP180;9970;-36.854;174.870;2023-08-08T11:56:04;101229.00;;;11.10
19644;BMP180;9970;-36.854;174.870;2023-08-08T11:58:37;101234.00;;;11.10
19644;BMP180;9970;-36.854;174.870;2023-08-08T12:01:10;101228.00;;;11.00
19644;BMP180;9970;-36.854;174.870;2023-08-08T12:03:46;101243.00;;;11.00
19644;BMP180;9970;-36.854;174.870;2023-08-08T12:06:19;101237.00;;;11.00
19644;BMP180;9970;-36.854;174.870;2023-08-08T12:08:52;101232.00;;;11.00
19644;BMP180;9970;-36.854;174.870;2023-08-08T12:11:27;101244.00;;;11.00
19644;BMP180;9970;-36.854;174.870;2023-08-08T12:14:00;101244.00;;;11.00
19644;BMP180;9970;-36.854;174.870;2023-08-08T12:16:33;101245.00;;;11.00
19644;BMP180;9970;-36.854;174.870;2023-08-08T12:19:07;101247.00;;;11.00
19644;BMP180;9970;-36.854;174.870;2023-08-08T12:21:44;101247.00;;;11.00
19644;BMP180;9970;-36.854;174.870;2023-08-08T12:24:20;101250.00;;;11.00
19644;BMP180;9970;-36.854;174.870;2023-08-08T12:26:54;101242.00;;;11.00
19644;BMP180;9970;-36.854;174.870;2023-08-08T12:29:27;101246.00;;;11.00
19644;BMP180;9970;-36.854;174.870;2023-08-08T12:32:05;101247.00;;;11.00
19644;BMP180;9970;-36.854;174.870;2023-08-08T12:34:39;101239.00;;;10.90
19644;BMP180;9970;-36.854;174.870;2023-08-08T12:37:11;101230.00;;;10.90
19644;BMP180;9970;-36.854;174.870;2023-08-08T12:39:44;101245.00;;;10.90
19644;BMP180;9970;-36.854;174.870;2023-08-08T12:42:17;101244.00;;;10.90
19644;BMP180;9970;-36.854;174.870;2023-08-08T12:44:50;101239.00;;;10.90
19644;BMP180;9970;-36.854;174.870;2023-08-08T12:47:24;101237.00;;;10.90
19644;BMP180;9970;-36.854;174.870;2023-08-08T12:49:57;101258.00;;;10.90
19644;BMP180;9970;-36.854;174.870;2023-08-08T12:52:31;101246.00;;;11.00
19644;BMP180;9970;-36.854;174.870;2023-08-08T12:55:04;101248.00;;;11.00
19644;BMP180;9970;-36.854;174.870;2023-08-08T12:57:38;101237.00;;;11.00
19644;BMP180;9970;-36.854;174.870;2023-08-08T13:00:12;101248.00;;;11.00
19644;BMP180;9970;-36.854;174.870;2023-08-08T13:02:45;101243.00;;;10.90
19644;BMP180;9970;-36.854;174.870;2023-08-08T13:05:19;101246.00;;;10.90
19644;BMP180;9970;-36.854;174.870;2023-08-08T13:07:52;101239.00;;;10.90
19644;BMP180;9970;-36.854;174.870;2023-08-08T13:10:25;101238.00;;;10.90
19644;BMP180;9970;-36.854;174.870;2023-08-08T13:12:58;101237.00;;;10.90
19644;BMP180;9970;-36.854;174.870;2023-08-08T13:15:31;101238.00;;;10.80
19644;BMP180;9970;-36.854;174.870;2023-08-08T13:18:04;101236.00;;;10.80
19644;BMP180;9970;-36.854;174.870;2023-08-08T13:20:37;101240.00;;;10.80
19644;BMP180;9970;-36.854;174.870;2023-08-08T13:23:10;101226.00;;;10.80
19644;BMP180;9970;-36.854;174.870;2023-08-08T13:25:43;101233.00;;;10.80
19644;BMP180;9970;-36.854;174.870;2023-08-08T13:28:16;101234.00;;;10.80
19644;BMP180;9970;-36.854;174.870;2023-08-08T13:30:49;101229.00;;;10.80
19644;BMP180;9970;-36.854;174.870;2023-08-08T13:33:22;101234.00;;;10.80
19644;BMP180;9970;-36.854;174.870;2023-08-08T13:35:55;101224.00;;;10.80
19644;BMP180;9970;-36.854;174.870;2023-08-08T13:38:28;101228.00;;;10.80
19644;BMP180;9970;-36.854;174.870;2023-08-08T13:41:01;101235.00;;;10.80
19644;BMP180;9970;-36.854;174.870;2023-08-08T13:43:34;101236.00;;;10.80
19644;BMP180;9970;-36.854;174.870;2023-08-08T13:46:07;101234.00;;;10.80
19644;BMP180;9970;-36.854;174.870;2023-08-08T13:48:41;101238.00;;;10.80
19644;BMP180;9970;-36.854;174.870;2023-08-08T13:51:14;101241.00;;;10.80
19644;BMP180;9970;-36.854;174.870;2023-08-08T13:53:47;101237.00;;;10.80
19644;BMP180;9970;-36.854;174.870;2023-08-08T13:56:23;101231.00;;;10.80
19644;BMP180;9970;-36.854;174.870;2023-08-08T13:58:56;101240.00;;;10.80
19644;BMP180;9970;-36.854;174.870;2023-08-08T14:01:29;101228.00;;;10.70
19644;BMP180;9970;-36.854;174.870;2023-08-08T14:04:02;101230.00;;;10.70
19644;BMP180;9970;-36.854;174.870;2023-08-08T14:06:35;101233.00;;;10.70
19644;BMP180;9970;-36.854;174.870;2023-08-08T14:09:08;101235.00;;;10.70